Station: EDITHBURGH AWS

  Atmospheric Gas Attenuation - ITU Rec 676-11   --------------- db/100km ---------------
Date Time Temp RH % AH g/m3 Dew Point Wind Direction Speed kph Gust kph Barometer mB Rainfall Since 9am 24GHz 47GHz 76GHz 122GHz 134GHz 241GHz
17 01:30 5.7 100 7.12 5.7 4 4 1021.2 0 16.8 26.1 38.0 99.5 88.7 303.3
17 01:20 6.3 6.5 4 4 1013.1 0
17 01:10 6.3 6.5 4 4 1013.1 0
17 01:00 7 100 7.75 7 4 4 1021.5 0 18.1 26.8 40.1 105.0 96.0 329.2
17 00:50 7.2 7.4 4 4 1013.1 0
17 00:40 8.7 9 6 7 1013.1 0
17 00:30 9.7 100 9.22 9.7 4 6 1021.6 0 21.1 28.5 45.0 118.2 113.3 390.0
17 00:20 10.6 10.9 6 6 1013.1 0
17 00:10 10.3 10.6 9 9 1013.1 0
17 00:00 10.1 100 9.46 10.1 7 9 1021.7 0 21.6 28.8 45.8 120.4 116.2 400.1
16 23:50 9.4 9.7 6 7 1013.1 0
16 23:40 9.4 9.7 7 7 1013.1 0
16 23:30 8.9 100 8.76 8.9 7 9 1022.1 0 20.2 28.0 43.5 114.1 107.9 371.0
16 23:20 9.8 10.1 6 6 1013.1 0
16 23:10 9.8 10.1 4 6 1013.1 0
16 23:00 9.9 100 9.34 9.9 6 6 1022.7 0 21.4 28.7 45.5 119.4 114.8 395.4
16 22:50 9.7 10 6 7 1013.1 0
16 22:40 9.9 10.2 6 6 1013.1 0
16 22:30 9.8 100 9.28 9.8 6 7 1022.7 0 21.2 28.6 45.3 118.8 114.1 392.9
16 22:20 9.8 10.1 7 7 1013.1 0
16 22:10 10 10.3 7 7 1013.1 0
16 22:00 9.9 100 9.34 9.9 7 9 1022.8 0 21.4 28.7 45.5 119.4 114.9 395.4
16 21:50 11 11.3 7 7 1013.1 0
16 21:40 11.1 11.4 7 7 1013.1 0
16 21:30 11 100 10.01 11 7 9 1023 0 22.8 29.5 47.8 125.5 122.9 423.5
16 21:20 11.3 11.6 7 7 1013.1 0
16 21:10 11.5 11.8 7 9 1013.1 0
16 21:00 11.5 100 10.33 11.5 11 15 1022.9 0 23.4 29.9 48.9 128.5 126.7 437.0
16 20:50 11.4 11.7 11 13 1013.1 0
16 20:40 11 11.3 13 15 1013.1 0
16 20:30 10.6 100 9.76 10.6 13 17 1022.8 0 22.2 29.2 46.9 123.2 119.8 413.0
16 20:20 9.6 9.9 11 13 1013.1 0
16 20:10 7.4 7.5 9 11 1013.1 0
16 20:00 9.1 100 8.88 9.1 7 9 1023.2 0 20.4 28.2 43.9 115.3 109.5 376.4
16 19:50 8.6 8.7 6 6 1013.1 0
16 19:40 9.2 9.3 6 6 1013.1 0
16 19:30 9.3 100 8.99 9.3 6 7 1023.5 0 20.6 28.3 44.3 116.3 110.8 381.0
16 19:20 9.6 9.7 6 6 1013.1 0
16 19:10 9.4 9.5 6 6 1013.1 0
16 19:00 9.2 100 8.93 9.2 6 6 1023.3 0 20.5 28.3 44.1 115.7 110.0 378.5
16 18:50 10.6 10.7 6 6 1013.1 0
16 18:40 10.7 10.8 7 7 1013.1 0
16 18:30 11.2 100 10.14 11.2 9 9 1023.2 0 23.0 29.7 48.2 126.8 124.4 429.1
16 18:20 10.6 10.7 9 9 1013.1 0
16 18:10 10.8 10.9 11 11 1013.1 0
16 18:00 10.9 100 9.95 10.9 9 11 1023.1 0 22.6 29.5 47.6 125.0 122.2 421.1
16 17:50 11.2 11.3 9 9 1013.1 0
16 17:40 11.7 11.8 7 7 1013.1 0
16 17:30 11.6 100 10.4 11.6 9 9 1022.9 0 23.6 30.0 49.1 129.2 127.5 440.0
16 17:20 11.8 11.9 7 7 1013.1 0
16 17:10 12.1 12.2 7 9 1013.1 0
16 17:00 12.3 100 10.86 12.3 7 9 1022.8 0 24.5 30.6 50.7 133.4 133.1 459.4
16 16:50 12.7 12.8 7 7 1013.1 0
16 16:40 12.9 13 7 7 1013.1 0
16 16:30 13 100 11.34 13 7 9 1022.9 0 25.5 31.2 52.4 137.9 138.9 479.8
16 16:20 13.1 13.2 7 9 1013.1 0
16 16:10 13.2 13.3 7 7 1013.1 0
16 16:00 13.2 100 11.48 13.2 7 11 1023.1 0 25.8 31.4 52.9 139.3 140.6 485.9
16 15:50 13.3 13.4 7 9 1013.1 0
16 15:40 13.4 13.5 7 9 1013.1 0
16 15:30 13.4 100 11.63 13.4 9 11 1023.3 0 26.1 31.6 53.5 140.8 142.5 492.5
16 15:20 13.6 13.7 7 9 1013.1 0
16 15:10 13.6 13.7 7 11 1013.1 0
16 15:00 13.5 100 11.7 13.5 7 11 1023.3 0 26.2 31.7 53.7 141.4 143.4 495.4
16 14:50 13.7 13.8 7 7 1013.1 0
16 14:40 13.8 13.9 7 9 1013.1 0
16 14:30 13.8 100 11.92 13.8 7 11 1023.3 0 26.7 32.0 54.5 143.5 146.1 504.9
16 14:20 14.2 14.3 9 9 1013.1 0
16 14:10 14.2 14.3 7 9 1013.1 0
16 14:00 14.5 100 12.44 14.5 6 9 1023.4 0 27.8 32.7 56.4 148.5 152.5 527.3
16 13:50 14.5 14.6 7 7 1013.1 0
16 13:40 14.4 14.5 6 6 1013.1 0
16 13:30 13.9 100 11.99 13.9 6 9 1023.4 0 26.8 32.1 54.8 144.2 146.9 507.9
16 13:20 14.3 14.4 7 9 1013.1 0
16 13:10 14.3 14.4 6 7 1013.1 0
16 13:00 14 100 12.06 14 7 11 1023.7 0 27.0 32.2 55.0 144.9 147.8 511.0
16 12:50 14.1 14.2 9 11 1013.1 0
16 12:40 13.9 14 7 7 1013.1 0
16 12:30 14.1 100 12.14 14.1 7 11 1024.4 0 27.1 32.3 55.4 145.8 148.9 514.8
16 12:20 14.1 14.2 6 7 1013.1 0
16 12:10 13.8 13.9 7 7 1013.1 0
16 12:00 14.2 100 12.21 14.2 7 11 1024.8 0 27.3 32.5 55.6 146.5 149.8 517.9
16 11:50 14.1 14.2 7 7 1013.1 0
16 11:40 13.7 13.8 6 7 1013.1 0
16 11:30 14.2 100 12.21 14.2 7 9 1025.2 0 27.3 32.5 55.6 146.5 149.8 518.1
16 11:20 14 14.1 6 7 1013.1 0
16 11:10 13.8 13.9 9 9 1013.1 0
16 11:00 13.7 100 11.84 13.7 7 9 1025.4 0 26.5 32.0 54.3 143.0 145.3 502.2
16 10:50 13.9 14 7 7 1013.1 0
16 10:40 13.8 13.9 7 9 1013.1 0
16 10:30 13.5 100 11.7 13.5 7 11 1025.4 0 26.2 31.8 53.8 141.7 143.6 496.2
16 10:20 13.7 14 7 9 1013.1 0
16 10:10 13.5 13.8 9 11 1013.1 0
16 10:00 13.3 100 11.55 13.3 9 11 1025.4 0 25.9 31.6 53.3 140.2 141.7 489.7
16 09:50 13.5 13.8 9 11 1013.1 0
16 09:40 13.1 13.4 9 11 1013.1 0
16 09:30 12.9 100 11.27 12.9 6 9 1025.1 0 25.4 31.2 52.3 137.6 138.3 477.7
16 09:20 12.4 12.7 0 0 1013.1 0
16 09:10 11.8 12.1 2 4 1013.1 0
16 09:00 10.6 100 9.76 10.6 4 6 1024.8 0 22.2 29.3 47.0 123.4 120.0 413.6

Last Refresh: 17-Jul-2020 01:38:50

Most of the information presented on this site is sourced from the Bureau of Meteorology.  Copyright in all material sourced from the Bureau of Meteorology resides with the Commonwealth of Australia.